createdAt,value
2019-03-20T00:02:20.894Z,99.90
2019-03-20T00:04:50.200Z,99.90
2019-03-20T00:07:18.754Z,99.90
2019-03-20T00:09:47.300Z,99.90
2019-03-20T00:12:15.767Z,99.90
2019-03-20T00:14:44.274Z,99.90
2019-03-20T00:17:12.773Z,99.90
2019-03-20T00:19:41.254Z,99.90
2019-03-20T00:22:09.688Z,99.90
2019-03-20T00:24:38.165Z,99.90
2019-03-20T00:27:06.623Z,99.90
2019-03-20T00:29:35.090Z,99.90
2019-03-20T00:32:04.582Z,99.90
2019-03-20T00:34:33.043Z,99.90
2019-03-20T00:37:01.478Z,99.90
2019-03-20T00:39:29.957Z,99.90
2019-03-20T00:41:58.465Z,99.90
2019-03-20T00:44:26.961Z,99.90
2019-03-20T00:46:55.434Z,99.90
2019-03-20T00:49:23.913Z,99.90
2019-03-20T00:51:52.413Z,99.90
2019-03-20T00:54:20.878Z,99.90
2019-03-20T00:56:49.316Z,99.90
2019-03-20T00:59:17.780Z,99.90
2019-03-20T01:01:46.279Z,99.90
2019-03-20T01:04:14.767Z,99.90
2019-03-20T01:06:43.312Z,99.90
2019-03-20T01:09:11.851Z,99.90
2019-03-20T01:11:40.310Z,99.90
2019-03-20T01:14:08.759Z,99.90
2019-03-20T01:16:37.253Z,99.90
2019-03-20T01:19:05.734Z,99.90
2019-03-20T01:21:34.230Z,99.90
2019-03-20T01:24:02.788Z,99.90
2019-03-20T01:26:31.350Z,99.90
2019-03-20T01:28:59.886Z,99.90
2019-03-20T01:31:28.398Z,99.90
2019-03-20T01:33:56.842Z,99.90
2019-03-20T01:36:25.347Z,99.90
2019-03-20T01:38:53.893Z,99.90
2019-03-20T01:41:23.035Z,99.90
2019-03-20T01:43:51.507Z,99.90
2019-03-20T01:46:20.003Z,99.90
2019-03-20T01:48:48.478Z,99.90
2019-03-20T01:51:21.551Z,99.90
2019-03-20T01:53:50.121Z,99.90
2019-03-20T01:56:18.597Z,99.90
2019-03-20T01:58:48.361Z,99.90
2019-03-20T02:01:16.803Z,99.90
2019-03-20T02:03:45.298Z,99.90
2019-03-20T02:06:13.926Z,99.90
2019-03-20T02:08:42.392Z,99.90
2019-03-20T02:11:10.864Z,99.90
2019-03-20T02:13:39.363Z,99.90
2019-03-20T02:16:07.825Z,99.90
2019-03-20T02:18:36.331Z,99.90
2019-03-20T02:21:04.958Z,99.90
2019-03-20T02:23:33.514Z,99.90
2019-03-20T02:26:02.067Z,99.90
2019-03-20T02:28:30.538Z,99.90
2019-03-20T02:30:59.039Z,99.90
2019-03-20T02:33:27.509Z,99.90
2019-03-20T02:35:55.943Z,99.90
2019-03-20T02:38:24.470Z,99.90
2019-03-20T02:40:52.963Z,99.90
2019-03-20T02:43:21.525Z,99.90
2019-03-20T02:45:50.019Z,99.90
2019-03-20T02:48:18.483Z,99.90
2019-03-20T02:50:46.999Z,99.90
2019-03-20T02:53:15.440Z,99.90
2019-03-20T02:55:43.898Z,99.90
2019-03-20T02:58:12.376Z,99.90
2019-03-20T03:00:40.853Z,99.90
2019-03-20T03:03:09.391Z,99.90
2019-03-20T03:05:39.113Z,99.90
2019-03-20T03:08:07.559Z,99.90
2019-03-20T03:10:36.199Z,99.90
2019-03-20T03:13:04.750Z,99.90
2019-03-20T03:15:33.301Z,99.90
2019-03-20T03:18:01.730Z,99.90
2019-03-20T03:20:30.239Z,99.90
2019-03-20T03:22:58.712Z,99.90
2019-03-20T03:25:27.253Z,99.90
2019-03-20T03:27:55.701Z,99.90
2019-03-20T03:30:24.198Z,99.90
2019-03-20T03:32:52.785Z,99.90
2019-03-20T03:35:21.323Z,99.90
2019-03-20T03:37:49.864Z,99.90
2019-03-20T03:40:19.846Z,99.90
2019-03-20T03:42:48.334Z,99.90
2019-03-20T03:45:17.477Z,99.90
2019-03-20T03:47:46.312Z,99.90
2019-03-20T03:50:15.148Z,99.90
2019-03-20T03:52:43.817Z,99.90
2019-03-20T03:55:13.490Z,99.90
2019-03-20T03:57:43.293Z,99.90
2019-03-20T04:00:19.725Z,99.90
2019-03-20T04:02:48.309Z,99.90
2019-03-20T04:05:16.762Z,99.90
2019-03-20T04:07:45.255Z,99.90
2019-03-20T04:10:15.358Z,99.90
2019-03-20T04:12:43.874Z,99.90
2019-03-20T04:15:13.885Z,99.90
2019-03-20T04:17:42.529Z,99.90
2019-03-20T04:20:18.993Z,99.90
2019-03-20T04:22:47.578Z,99.90
2019-03-20T04:25:16.195Z,99.90
2019-03-20T04:27:44.775Z,99.90
2019-03-20T04:30:20.357Z,99.90
2019-03-20T04:32:48.858Z,99.90
2019-03-20T04:35:17.312Z,99.90
2019-03-20T04:37:45.847Z,99.90
2019-03-20T04:40:15.588Z,99.90
2019-03-20T04:42:44.093Z,99.90
2019-03-20T04:45:13.723Z,99.90
2019-03-20T04:47:42.212Z,99.90
2019-03-20T04:50:12.054Z,99.90
2019-03-20T04:52:40.602Z,99.90
2019-03-20T04:55:09.530Z,99.90
2019-03-20T04:57:38.039Z,99.90
2019-03-20T05:00:23.568Z,99.90
2019-03-20T05:02:52.066Z,99.90
2019-03-20T05:05:20.572Z,99.90
2019-03-20T05:07:49.012Z,99.90
2019-03-20T05:10:20.626Z,99.90
2019-03-20T05:12:49.226Z,99.90
2019-03-20T05:15:17.697Z,99.90
2019-03-20T05:17:46.131Z,99.90
2019-03-20T05:20:16.051Z,99.90
2019-03-20T05:22:44.578Z,99.90
2019-03-20T05:25:13.238Z,99.90
2019-03-20T05:27:41.762Z,99.90
2019-03-20T05:30:13.125Z,99.90
2019-03-20T05:32:41.640Z,99.90
2019-03-20T05:35:10.238Z,99.90
2019-03-20T05:37:38.744Z,99.90
2019-03-20T05:40:10.299Z,99.90
2019-03-20T05:42:38.742Z,99.90
2019-03-20T05:45:10.146Z,99.90
2019-03-20T05:47:38.674Z,99.90
2019-03-20T05:50:09.884Z,99.90
2019-03-20T05:52:38.483Z,99.90
2019-03-20T05:55:08.055Z,99.90
2019-03-20T05:57:36.570Z,99.90
2019-03-20T06:00:10.789Z,99.90
2019-03-20T06:02:39.312Z,99.90
2019-03-20T06:05:08.488Z,99.90
2019-03-20T06:07:37.043Z,99.90
2019-03-20T06:10:16.024Z,99.90
2019-03-20T06:12:44.526Z,99.90
2019-03-20T06:15:14.226Z,99.90
2019-03-20T06:17:42.765Z,99.90
2019-03-20T06:20:12.600Z,99.90
2019-03-20T06:22:41.081Z,99.90
2019-03-20T06:25:11.299Z,99.90
2019-03-20T06:27:39.861Z,99.90
2019-03-20T06:30:13.920Z,99.90
2019-03-20T06:32:42.518Z,99.90
2019-03-20T06:35:11.346Z,99.90
2019-03-20T06:37:39.878Z,99.90
2019-03-20T06:40:10.554Z,99.90
2019-03-20T06:42:39.122Z,99.90
2019-03-20T06:45:15.160Z,99.90
2019-03-20T06:47:43.675Z,99.90
2019-03-20T06:50:15.031Z,99.90
2019-03-20T06:52:43.502Z,99.90
2019-03-20T06:55:12.078Z,98.80
2019-03-20T06:57:40.731Z,94.30
2019-03-20T07:00:30.274Z,91.80
2019-03-20T07:03:00.201Z,88.50
2019-03-20T07:05:31.784Z,86.00
2019-03-20T07:08:03.218Z,85.30
2019-03-20T07:10:55.874Z,87.40
2019-03-20T07:13:24.415Z,86.70
2019-03-20T07:15:52.893Z,83.20
2019-03-20T07:18:21.360Z,83.60
2019-03-20T07:20:49.811Z,82.80
2019-03-20T07:23:18.363Z,80.70
2019-03-20T07:25:46.875Z,83.50
2019-03-20T07:28:15.370Z,79.30
2019-03-20T07:30:43.847Z,78.90
2019-03-20T07:33:12.351Z,80.40
2019-03-20T07:35:40.827Z,80.80
2019-03-20T07:38:09.313Z,79.70
2019-03-20T07:40:37.754Z,80.70
2019-03-20T07:43:09.125Z,78.30
2019-03-20T07:45:36.482Z,78.00
2019-03-20T07:48:05.033Z,77.90
2019-03-20T07:50:33.799Z,74.30
2019-03-20T07:53:02.331Z,73.70
2019-03-20T07:55:30.827Z,75.30
2019-03-20T07:57:59.355Z,76.70
2019-03-20T08:00:27.822Z,76.30
2019-03-20T08:02:56.261Z,76.70
2019-03-20T08:05:29.108Z,71.90
2019-03-20T08:07:54.913Z,68.60
2019-03-20T08:10:23.486Z,69.80
2019-03-20T08:12:51.944Z,64.70
2019-03-20T08:15:20.401Z,66.30
2019-03-20T08:17:48.861Z,66.30
2019-03-20T08:20:23.011Z,64.00
2019-03-20T08:22:51.509Z,63.70
2019-03-20T08:25:19.991Z,64.60
2019-03-20T08:27:48.518Z,72.50
2019-03-20T08:30:18.241Z,68.30
2019-03-20T08:32:46.774Z,66.50
2019-03-20T08:35:15.607Z,67.90
2019-03-20T08:37:44.135Z,64.20
2019-03-20T08:40:19.421Z,70.90
2019-03-20T08:42:47.865Z,73.10
2019-03-20T08:45:18.235Z,80.40
2019-03-20T08:47:47.646Z,78.90
2019-03-20T08:50:25.975Z,81.30
2019-03-20T08:52:54.411Z,81.10
2019-03-20T08:55:22.923Z,79.60
2019-03-20T08:57:51.380Z,82.00
2019-03-20T09:00:24.571Z,85.80
2019-03-20T09:02:53.278Z,84.90
2019-03-20T09:05:21.784Z,85.30
2019-03-20T09:07:50.238Z,77.10
2019-03-20T09:10:23.515Z,77.10
2019-03-20T09:12:52.093Z,89.30
2019-03-20T09:15:21.354Z,86.70
2019-03-20T09:17:49.864Z,81.50
2019-03-20T09:20:21.937Z,90.70
2019-03-20T09:22:50.445Z,80.00
2019-03-20T09:25:23.142Z,87.00
2019-03-20T09:27:51.654Z,91.40
2019-03-20T09:30:22.332Z,92.00
2019-03-20T09:32:51.294Z,88.20
2019-03-20T09:35:19.739Z,92.80
2019-03-20T09:37:52.219Z,95.50
2019-03-20T09:40:25.695Z,90.20
2019-03-20T09:42:54.122Z,86.90
2019-03-20T09:45:23.314Z,90.00
2019-03-20T09:47:51.799Z,90.60
2019-03-20T09:50:22.463Z,94.60
2019-03-20T09:52:50.898Z,88.80
2019-03-20T09:55:19.433Z,93.80
2019-03-20T09:57:47.899Z,87.80
2019-03-20T10:00:21.554Z,90.50
2019-03-20T10:02:50.019Z,89.10
2019-03-20T10:05:18.557Z,87.30
2019-03-20T10:07:47.100Z,87.80
2019-03-20T10:10:23.187Z,88.80
2019-03-20T10:12:51.845Z,88.30
2019-03-20T10:15:21.703Z,90.20
2019-03-20T10:17:50.122Z,89.60
2019-03-20T10:20:19.982Z,86.00
2019-03-20T10:22:48.448Z,91.00
2019-03-20T10:25:17.442Z,90.30
2019-03-20T10:27:45.952Z,85.20
2019-03-20T10:30:25.206Z,83.10
2019-03-20T10:32:53.757Z,83.70
2019-03-20T10:35:22.279Z,85.50
2019-03-20T10:37:50.841Z,87.30
2019-03-20T10:40:20.925Z,88.90
2019-03-20T10:42:49.709Z,89.70
2019-03-20T10:45:20.205Z,86.00
2019-03-20T10:47:49.177Z,84.40
2019-03-20T10:50:21.466Z,87.80
2019-03-20T10:52:50.127Z,90.50
2019-03-20T10:55:18.645Z,88.50
2019-03-20T10:57:47.125Z,88.20
2019-03-20T11:00:25.956Z,87.10
2019-03-20T11:02:54.410Z,84.90
2019-03-20T11:05:22.930Z,78.10
2019-03-20T11:07:51.388Z,74.20
2019-03-20T11:10:25.619Z,73.70
2019-03-20T11:12:54.422Z,72.00
2019-03-20T11:15:24.074Z,75.80
2019-03-20T11:17:52.600Z,70.90
2019-03-20T11:20:22.279Z,72.90
2019-03-20T11:22:50.775Z,67.90
2019-03-20T11:25:21.266Z,70.80
2019-03-20T11:27:49.849Z,70.90
2019-03-20T11:30:28.650Z,75.30
2019-03-20T11:32:57.337Z,71.50
2019-03-20T11:35:26.029Z,74.20
2019-03-20T11:37:54.498Z,75.30
2019-03-20T11:40:33.368Z,75.30
2019-03-20T11:43:01.890Z,77.20
2019-03-20T11:45:30.416Z,77.30
2019-03-20T11:47:59.019Z,79.60
2019-03-20T11:50:30.544Z,74.70
2019-03-20T11:52:59.036Z,77.70
2019-03-20T11:55:27.605Z,73.10
2019-03-20T11:57:56.071Z,73.20
2019-03-20T12:00:24.700Z,79.50
2019-03-20T12:02:53.217Z,82.60
2019-03-20T12:05:21.649Z,79.50
2019-03-20T12:07:50.129Z,74.10
2019-03-20T12:10:20.779Z,71.10
2019-03-20T12:12:49.350Z,74.60
2019-03-20T12:15:17.833Z,73.60
2019-03-20T12:17:46.355Z,69.50
2019-03-20T12:20:21.993Z,74.40
2019-03-20T12:22:51.272Z,75.30
2019-03-20T12:25:33.580Z,72.70
2019-03-20T12:28:02.135Z,69.10
2019-03-20T12:30:33.672Z,76.50
2019-03-20T12:33:02.814Z,72.80
2019-03-20T12:35:45.033Z,71.50
2019-03-20T12:38:15.145Z,68.70
2019-03-20T12:40:43.765Z,71.90
2019-03-20T12:43:12.257Z,71.00
2019-03-20T12:45:41.075Z,65.90
2019-03-20T12:48:11.146Z,63.90
2019-03-20T12:50:39.685Z,63.10
2019-03-20T12:53:10.392Z,64.00
2019-03-20T12:55:38.904Z,62.20
2019-03-20T12:58:07.467Z,64.10
2019-03-20T13:00:35.927Z,65.80
2019-03-20T13:03:04.747Z,63.80
2019-03-20T13:05:33.268Z,64.60
2019-03-20T13:08:05.850Z,67.50
2019-03-20T13:10:31.986Z,65.30
2019-03-20T13:13:01.289Z,66.80
2019-03-20T13:15:29.809Z,64.50
2019-03-20T13:17:58.393Z,63.30
2019-03-20T13:20:27.382Z,64.50
2019-03-20T13:23:23.003Z,62.70
2019-03-20T13:25:51.477Z,61.90
2019-03-20T13:28:19.905Z,63.20
2019-03-20T13:31:09.785Z,67.60
2019-03-20T13:33:38.233Z,63.30
2019-03-20T13:36:06.852Z,65.40
2019-03-20T13:38:35.309Z,64.40
2019-03-20T13:41:03.764Z,66.80
2019-03-20T13:43:32.235Z,62.80
2019-03-20T13:46:00.657Z,60.90
2019-03-20T13:48:29.142Z,60.60
2019-03-20T13:50:57.595Z,59.10
2019-03-20T13:53:26.079Z,59.80
2019-03-20T13:55:54.530Z,59.40
2019-03-20T13:58:23.035Z,64.30
2019-03-20T14:00:51.462Z,60.60
2019-03-20T14:03:19.897Z,59.40
2019-03-20T14:05:48.447Z,61.00
2019-03-20T14:08:16.894Z,59.70
2019-03-20T14:10:50.430Z,59.60
2019-03-20T14:13:15.531Z,58.30
2019-03-20T14:15:43.973Z,56.50
2019-03-20T14:18:12.420Z,54.10
2019-03-20T14:20:40.891Z,53.30
2019-03-20T14:23:09.376Z,54.70
2019-03-20T14:25:37.813Z,54.60
2019-03-20T14:28:06.297Z,55.40
2019-03-20T14:30:34.913Z,55.60
2019-03-20T14:33:03.394Z,54.90
2019-03-20T14:35:31.813Z,54.60
2019-03-20T14:38:01.155Z,58.10
2019-03-20T14:40:37.647Z,59.80
2019-03-20T14:43:00.801Z,59.60
2019-03-20T14:45:29.374Z,58.50
2019-03-20T14:47:57.822Z,59.40
2019-03-20T14:50:27.115Z,63.40
2019-03-20T14:52:55.635Z,61.70
2019-03-20T14:55:24.099Z,65.00
2019-03-20T14:57:52.526Z,60.90
2019-03-20T15:00:23.605Z,60.90
2019-03-20T15:02:52.220Z,61.40
2019-03-20T15:05:20.673Z,63.90
2019-03-20T15:07:49.148Z,65.20
2019-03-20T15:10:20.125Z,65.80
2019-03-20T15:12:48.717Z,62.70
2019-03-20T15:15:29.034Z,62.60
2019-03-20T15:17:57.469Z,61.80
2019-03-20T15:20:25.949Z,64.40
2019-03-20T15:22:54.428Z,63.00
2019-03-20T15:25:22.987Z,65.10
2019-03-20T15:27:51.417Z,65.20
2019-03-20T15:30:21.598Z,65.10
2019-03-20T15:32:50.047Z,65.20
2019-03-20T15:35:18.549Z,65.40
2019-03-20T15:37:47.082Z,64.00
2019-03-20T15:40:28.410Z,64.40
2019-03-20T15:42:56.862Z,63.20
2019-03-20T15:45:25.395Z,65.30
2019-03-20T15:47:53.846Z,65.20
2019-03-20T15:50:26.518Z,63.90
2019-03-20T15:52:55.075Z,63.00
2019-03-20T15:55:28.907Z,63.20
2019-03-20T15:57:57.405Z,61.20
2019-03-20T16:00:25.996Z,63.00
2019-03-20T16:02:57.762Z,65.80
2019-03-20T16:05:26.217Z,64.90
2019-03-20T16:07:54.691Z,64.00
2019-03-20T16:10:23.490Z,65.50
2019-03-20T16:12:51.982Z,66.20
2019-03-20T16:15:21.708Z,64.30
2019-03-20T16:17:50.234Z,64.80
2019-03-20T16:20:19.059Z,62.00
2019-03-20T16:22:47.544Z,62.20
2019-03-20T16:25:20.245Z,62.30
2019-03-20T16:27:48.720Z,63.20
2019-03-20T16:30:25.328Z,62.80
2019-03-20T16:32:53.900Z,65.50
2019-03-20T16:35:23.998Z,64.20
2019-03-20T16:37:52.494Z,62.20
2019-03-20T16:40:25.241Z,66.50
2019-03-20T16:42:53.678Z,65.30
2019-03-20T16:45:27.434Z,65.60
2019-03-20T16:47:56.139Z,68.80
2019-03-20T16:50:24.605Z,65.70
2019-03-20T16:52:53.109Z,63.80
2019-03-20T16:55:21.635Z,65.00
2019-03-20T16:57:50.162Z,64.80
2019-03-20T17:00:27.754Z,68.50
2019-03-20T17:02:56.458Z,68.30
2019-03-20T17:05:26.066Z,68.90
2019-03-20T17:07:54.527Z,69.00
2019-03-20T17:10:28.914Z,73.90
2019-03-20T17:12:57.457Z,83.60
2019-03-20T17:15:31.214Z,93.90
2019-03-20T17:18:00.995Z,97.00
2019-03-20T17:20:29.574Z,94.90
2019-03-20T17:22:58.137Z,97.90
2019-03-20T17:25:26.750Z,99.90
2019-03-20T17:27:55.269Z,99.90
2019-03-20T17:30:32.521Z,99.90
2019-03-20T17:33:01.816Z,99.90
2019-03-20T17:35:30.286Z,99.90
2019-03-20T17:37:58.812Z,99.90
2019-03-20T17:40:28.071Z,99.90
2019-03-20T17:42:56.836Z,99.90
2019-03-20T17:45:26.953Z,99.90
2019-03-20T17:47:55.454Z,99.90
2019-03-20T17:50:25.734Z,99.90
2019-03-20T17:52:54.304Z,99.90
2019-03-20T17:55:22.742Z,99.90
2019-03-20T17:57:51.356Z,99.90
2019-03-20T18:00:27.345Z,99.90
2019-03-20T18:02:55.813Z,99.90
2019-03-20T18:05:24.339Z,99.90
2019-03-20T18:07:52.770Z,99.90
2019-03-20T18:10:21.554Z,99.90
2019-03-20T18:12:50.022Z,99.90
2019-03-20T18:15:18.645Z,99.90
2019-03-20T18:17:47.228Z,99.90
2019-03-20T18:20:19.730Z,99.90
2019-03-20T18:22:48.242Z,99.90
2019-03-20T18:25:16.710Z,99.90
2019-03-20T18:27:45.145Z,99.90
2019-03-20T18:30:28.373Z,99.90
2019-03-20T18:32:56.861Z,99.90
2019-03-20T18:35:25.457Z,99.90
2019-03-20T18:37:53.989Z,99.90
2019-03-20T18:40:28.549Z,99.90
2019-03-20T18:42:57.025Z,99.90
2019-03-20T18:45:28.610Z,99.90
2019-03-20T18:47:57.123Z,99.90
2019-03-20T18:50:26.227Z,99.90
2019-03-20T18:52:54.694Z,99.90
2019-03-20T18:55:23.248Z,99.90
2019-03-20T18:57:51.824Z,99.90
2019-03-20T19:00:34.391Z,99.90
2019-03-20T19:03:08.525Z,99.90
2019-03-20T19:05:45.737Z,99.90
2019-03-20T19:08:14.383Z,99.90
2019-03-20T19:10:42.955Z,99.90
2019-03-20T19:13:11.568Z,99.90
2019-03-20T19:15:40.143Z,99.90
2019-03-20T19:18:08.684Z,99.90
2019-03-20T19:20:37.150Z,99.90
2019-03-20T19:23:05.671Z,99.90
2019-03-20T19:25:34.277Z,99.90
2019-03-20T19:28:02.763Z,99.90
2019-03-20T19:30:31.363Z,99.90
2019-03-20T19:33:01.149Z,99.90
2019-03-20T19:35:29.597Z,99.90
2019-03-20T19:37:58.078Z,99.90
2019-03-20T19:40:26.655Z,99.90
2019-03-20T19:42:55.144Z,99.90
2019-03-20T19:45:23.691Z,99.90
2019-03-20T19:47:52.139Z,99.90
2019-03-20T19:50:21.995Z,99.90
2019-03-20T19:52:50.513Z,99.90
2019-03-20T19:55:39.878Z,99.90
2019-03-20T19:58:08.367Z,99.90
2019-03-20T20:00:36.807Z,99.90
2019-03-20T20:03:05.383Z,99.90
2019-03-20T20:05:33.921Z,99.90
2019-03-20T20:08:02.389Z,99.90
2019-03-20T20:10:30.886Z,99.90
2019-03-20T20:12:59.423Z,99.90
2019-03-20T20:15:30.236Z,99.90
2019-03-20T20:17:58.681Z,99.90
2019-03-20T20:20:29.650Z,99.90
2019-03-20T20:22:58.099Z,99.90
2019-03-20T20:25:26.694Z,99.90
2019-03-20T20:27:55.146Z,99.90
2019-03-20T20:30:23.626Z,99.90
2019-03-20T20:32:52.182Z,99.90
2019-03-20T20:35:20.744Z,99.90
2019-03-20T20:37:50.413Z,99.90
2019-03-20T20:40:24.567Z,99.90
2019-03-20T20:42:53.113Z,99.90
2019-03-20T20:45:21.581Z,99.90
2019-03-20T20:47:50.071Z,99.90
2019-03-20T20:50:18.585Z,99.90
2019-03-20T20:52:47.469Z,99.90
2019-03-20T20:55:23.886Z,99.90
2019-03-20T20:57:53.385Z,99.90
2019-03-20T21:00:22.719Z,99.90
2019-03-20T21:02:51.221Z,99.90
2019-03-20T21:05:19.754Z,99.90
2019-03-20T21:07:48.231Z,99.90
2019-03-20T21:10:21.394Z,99.90
2019-03-20T21:12:56.415Z,99.90
2019-03-20T21:15:37.421Z,99.90
2019-03-20T21:18:15.068Z,99.90
2019-03-20T21:20:44.099Z,99.90
2019-03-20T21:23:38.577Z,99.90
2019-03-20T21:26:11.869Z,99.90
2019-03-20T21:29:02.395Z,99.90
2019-03-20T21:31:34.114Z,99.90
2019-03-20T21:34:22.396Z,99.90
2019-03-20T21:37:28.870Z,99.90
2019-03-20T21:39:57.294Z,99.90
2019-03-20T21:42:51.241Z,99.90
2019-03-20T21:45:34.859Z,99.90
2019-03-20T21:48:03.367Z,99.90
2019-03-20T21:50:52.971Z,99.90
2019-03-20T21:53:39.394Z,99.90
2019-03-20T21:56:30.290Z,99.90
2019-03-20T21:59:10.789Z,99.90
2019-03-20T22:02:15.724Z,99.90
2019-03-20T22:04:44.233Z,99.90
2019-03-20T22:07:12.830Z,99.90
2019-03-20T22:09:53.358Z,99.90
2019-03-20T22:12:45.985Z,99.90
2019-03-20T22:15:20.336Z,99.90
2019-03-20T22:18:08.521Z,99.90
2019-03-20T22:20:55.258Z,99.90
2019-03-20T22:23:52.306Z,99.90
2019-03-20T22:26:55.964Z,99.90
2019-03-20T22:29:28.108Z,99.90
2019-03-20T22:32:16.202Z,99.90
2019-03-20T22:35:22.439Z,99.90
2019-03-20T22:37:50.911Z,99.90
2019-03-20T22:40:40.687Z,99.90
2019-03-20T22:43:12.218Z,99.90
2019-03-20T22:46:08.095Z,99.90
2019-03-20T22:48:48.729Z,99.90
2019-03-20T22:51:31.971Z,99.90
2019-03-20T22:54:36.692Z,99.90
2019-03-20T22:57:10.861Z,99.90
2019-03-20T22:59:39.326Z,99.90
2019-03-20T23:02:19.973Z,99.90
2019-03-20T23:04:57.710Z,99.90
2019-03-20T23:07:26.178Z,99.90
2019-03-20T23:09:54.683Z,99.90
2019-03-20T23:12:23.248Z,99.90
2019-03-20T23:14:51.749Z,99.90
2019-03-20T23:17:22.585Z,99.90
2019-03-20T23:19:51.160Z,99.90
2019-03-20T23:22:19.697Z,99.90
2019-03-20T23:24:48.177Z,99.90
2019-03-20T23:27:20.086Z,99.90
2019-03-20T23:29:48.520Z,99.90
2019-03-20T23:32:17.023Z,99.90
2019-03-20T23:34:45.487Z,99.90
2019-03-20T23:37:14.010Z,99.90
2019-03-20T23:39:42.473Z,99.90
2019-03-20T23:42:10.987Z,99.90
2019-03-20T23:44:39.441Z,99.90
2019-03-20T23:47:08.002Z,99.90
2019-03-20T23:49:36.575Z,99.90
2019-03-20T23:52:05.054Z,99.90
2019-03-20T23:54:36.605Z,99.90
2019-03-20T23:57:05.081Z,99.90
2019-03-20T23:59:33.542Z,99.90
